sensor_id;sensor_type;location;lat;lon;timestamp;P1;durP1;ratioP1;P2;durP2;ratioP2
20008;SDS011;10165;42.662;23.260;2023-05-10T00:01:14;5.17;;;3.20;;
20008;SDS011;10165;42.662;23.260;2023-05-10T00:03:41;2.97;;;2.60;;
20008;SDS011;10165;42.662;23.260;2023-05-10T00:06:08;4.47;;;3.03;;
20008;SDS011;10165;42.662;23.260;2023-05-10T00:08:34;4.23;;;3.27;;
20008;SDS011;10165;42.662;23.260;2023-05-10T00:11:01;5.40;;;3.47;;
20008;SDS011;10165;42.662;23.260;2023-05-10T00:13:28;4.67;;;3.07;;
20008;SDS011;10165;42.662;23.260;2023-05-10T00:15:54;4.07;;;3.50;;
20008;SDS011;10165;42.662;23.260;2023-05-10T00:18:21;4.30;;;3.40;;
20008;SDS011;10165;42.662;23.260;2023-05-10T00:20:48;5.07;;;3.70;;
20008;SDS011;10165;42.662;23.260;2023-05-10T00:23:15;4.83;;;3.43;;
20008;SDS011;10165;42.662;23.260;2023-05-10T00:25:41;4.43;;;3.33;;
20008;SDS011;10165;42.662;23.260;2023-05-10T00:28:08;3.73;;;3.03;;
20008;SDS011;10165;42.662;23.260;2023-05-10T00:30:35;3.70;;;3.23;;
20008;SDS011;10165;42.662;23.260;2023-05-10T00:33:01;4.80;;;3.23;;
20008;SDS011;10165;42.662;23.260;2023-05-10T00:35:29;4.07;;;3.00;;
20008;SDS011;10165;42.662;23.260;2023-05-10T00:37:55;5.00;;;3.77;;
20008;SDS011;10165;42.662;23.260;2023-05-10T00:40:22;4.17;;;3.43;;
20008;SDS011;10165;42.662;23.260;2023-05-10T00:42:50;4.33;;;3.63;;
20008;SDS011;10165;42.662;23.260;2023-05-10T00:45:17;6.07;;;3.63;;
20008;SDS011;10165;42.662;23.260;2023-05-10T00:47:43;4.60;;;3.97;;
20008;SDS011;10165;42.662;23.260;2023-05-10T00:50:10;4.57;;;3.63;;
20008;SDS011;10165;42.662;23.260;2023-05-10T00:52:37;5.03;;;4.07;;
20008;SDS011;10165;42.662;23.260;2023-05-10T00:55:04;4.93;;;3.70;;
20008;SDS011;10165;42.662;23.260;2023-05-10T00:57:32;5.27;;;4.00;;
20008;SDS011;10165;42.662;23.260;2023-05-10T00:59:59;4.73;;;3.87;;
20008;SDS011;10165;42.662;23.260;2023-05-10T01:02:25;7.13;;;4.23;;
20008;SDS011;10165;42.662;23.260;2023-05-10T01:04:52;5.30;;;4.27;;
20008;SDS011;10165;42.662;23.260;2023-05-10T01:07:19;5.00;;;3.87;;
20008;SDS011;10165;42.662;23.260;2023-05-10T01:09:46;3.03;;;2.70;;
20008;SDS011;10165;42.662;23.260;2023-05-10T01:12:14;4.00;;;3.37;;
20008;SDS011;10165;42.662;23.260;2023-05-10T01:14:41;6.70;;;4.43;;
20008;SDS011;10165;42.662;23.260;2023-05-10T01:17:08;5.60;;;4.10;;
20008;SDS011;10165;42.662;23.260;2023-05-10T01:19:37;4.27;;;3.50;;
20008;SDS011;10165;42.662;23.260;2023-05-10T01:27:39;8.13;;;4.00;;
20008;SDS011;10165;42.662;23.260;2023-05-10T01:33:15;4.63;;;3.67;;
20008;SDS011;10165;42.662;23.260;2023-05-10T01:36:02;4.23;;;3.30;;
20008;SDS011;10165;42.662;23.260;2023-05-10T01:41:28;4.53;;;3.90;;
20008;SDS011;10165;42.662;23.260;2023-05-10T01:46:39;4.57;;;3.73;;
20008;SDS011;10165;42.662;23.260;2023-05-10T01:49:20;3.23;;;2.93;;
20008;SDS011;10165;42.662;23.260;2023-05-10T01:51:52;4.17;;;2.97;;
20008;SDS011;10165;42.662;23.260;2023-05-10T01:54:23;3.80;;;2.77;;
20008;SDS011;10165;42.662;23.260;2023-05-10T01:57:00;2.87;;;2.60;;
20008;SDS011;10165;42.662;23.260;2023-05-10T01:59:33;3.50;;;3.20;;
20008;SDS011;10165;42.662;23.260;2023-05-10T02:02:03;2.93;;;2.70;;
20008;SDS011;10165;42.662;23.260;2023-05-10T02:04:32;3.83;;;2.90;;
20008;SDS011;10165;42.662;23.260;2023-05-10T02:07:01;4.57;;;2.90;;
20008;SDS011;10165;42.662;23.260;2023-05-10T02:09:28;4.20;;;3.40;;
20008;SDS011;10165;42.662;23.260;2023-05-10T02:11:58;4.50;;;3.00;;
20008;SDS011;10165;42.662;23.260;2023-05-10T02:14:28;2.73;;;2.53;;
20008;SDS011;10165;42.662;23.260;2023-05-10T02:16:58;2.87;;;2.50;;
20008;SDS011;10165;42.662;23.260;2023-05-10T02:19:26;3.47;;;2.60;;
20008;SDS011;10165;42.662;23.260;2023-05-10T02:21:55;4.27;;;2.53;;
20008;SDS011;10165;42.662;23.260;2023-05-10T02:24:23;3.10;;;2.80;;
20008;SDS011;10165;42.662;23.260;2023-05-10T02:26:51;3.07;;;2.70;;
20008;SDS011;10165;42.662;23.260;2023-05-10T02:29:22;3.47;;;2.30;;
20008;SDS011;10165;42.662;23.260;2023-05-10T02:31:51;2.77;;;2.57;;
20008;SDS011;10165;42.662;23.260;2023-05-10T02:34:19;3.07;;;2.53;;
20008;SDS011;10165;42.662;23.260;2023-05-10T02:36:49;3.13;;;2.40;;
20008;SDS011;10165;42.662;23.260;2023-05-10T02:39:17;4.20;;;2.53;;
20008;SDS011;10165;42.662;23.260;2023-05-10T02:41:46;2.67;;;2.47;;
20008;SDS011;10165;42.662;23.260;2023-05-10T02:44:15;3.63;;;2.70;;
20008;SDS011;10165;42.662;23.260;2023-05-10T02:46:44;9.40;;;2.87;;
20008;SDS011;10165;42.662;23.260;2023-05-10T02:49:11;3.63;;;2.83;;
20008;SDS011;10165;42.662;23.260;2023-05-10T02:51:40;2.97;;;2.67;;
20008;SDS011;10165;42.662;23.260;2023-05-10T02:54:12;4.37;;;2.53;;
20008;SDS011;10165;42.662;23.260;2023-05-10T02:56:49;4.37;;;3.20;;
20008;SDS011;10165;42.662;23.260;2023-05-10T02:59:19;6.50;;;3.37;;
20008;SDS011;10165;42.662;23.260;2023-05-10T03:01:46;4.13;;;2.80;;
20008;SDS011;10165;42.662;23.260;2023-05-10T03:04:13;4.77;;;2.87;;
20008;SDS011;10165;42.662;23.260;2023-05-10T03:06:40;3.20;;;2.57;;
20008;SDS011;10165;42.662;23.260;2023-05-10T03:09:07;3.30;;;3.00;;
20008;SDS011;10165;42.662;23.260;2023-05-10T03:20:16;3.47;;;2.93;;
20008;SDS011;10165;42.662;23.260;2023-05-10T03:22:56;4.57;;;3.27;;
20008;SDS011;10165;42.662;23.260;2023-05-10T03:25:29;3.90;;;2.90;;
20008;SDS011;10165;42.662;23.260;2023-05-10T03:27:57;3.63;;;2.97;;
20008;SDS011;10165;42.662;23.260;2023-05-10T03:30:26;3.93;;;2.77;;
20008;SDS011;10165;42.662;23.260;2023-05-10T03:32:53;7.03;;;2.80;;
20008;SDS011;10165;42.662;23.260;2023-05-10T03:35:20;4.23;;;2.87;;
20008;SDS011;10165;42.662;23.260;2023-05-10T03:37:47;3.50;;;3.03;;
20008;SDS011;10165;42.662;23.260;2023-05-10T03:40:13;4.53;;;3.33;;
20008;SDS011;10165;42.662;23.260;2023-05-10T03:42:41;3.70;;;2.90;;
20008;SDS011;10165;42.662;23.260;2023-05-10T03:45:07;3.27;;;2.70;;
20008;SDS011;10165;42.662;23.260;2023-05-10T03:47:35;4.33;;;3.23;;
20008;SDS011;10165;42.662;23.260;2023-05-10T03:50:01;4.13;;;3.20;;
20008;SDS011;10165;42.662;23.260;2023-05-10T03:52:28;4.80;;;3.73;;
20008;SDS011;10165;42.662;23.260;2023-05-10T03:54:55;4.43;;;3.40;;
20008;SDS011;10165;42.662;23.260;2023-05-10T03:57:21;6.40;;;3.43;;
20008;SDS011;10165;42.662;23.260;2023-05-10T03:59:48;4.77;;;3.23;;
20008;SDS011;10165;42.662;23.260;2023-05-10T04:02:15;4.70;;;3.53;;
20008;SDS011;10165;42.662;23.260;2023-05-10T04:04:41;4.23;;;2.40;;
20008;SDS011;10165;42.662;23.260;2023-05-10T04:07:08;4.40;;;3.13;;
20008;SDS011;10165;42.662;23.260;2023-05-10T04:09:36;3.67;;;2.37;;
20008;SDS011;10165;42.662;23.260;2023-05-10T04:12:03;7.13;;;3.43;;
20008;SDS011;10165;42.662;23.260;2023-05-10T04:14:30;4.90;;;3.23;;
20008;SDS011;10165;42.662;23.260;2023-05-10T04:16:56;4.33;;;3.40;;
20008;SDS011;10165;42.662;23.260;2023-05-10T04:19:23;3.40;;;3.10;;
20008;SDS011;10165;42.662;23.260;2023-05-10T04:21:50;3.37;;;3.07;;
20008;SDS011;10165;42.662;23.260;2023-05-10T04:24:16;5.10;;;3.20;;
20008;SDS011;10165;42.662;23.260;2023-05-10T04:26:43;4.57;;;3.60;;
20008;SDS011;10165;42.662;23.260;2023-05-10T04:29:10;5.27;;;3.53;;
20008;SDS011;10165;42.662;23.260;2023-05-10T04:31:36;5.93;;;4.20;;
20008;SDS011;10165;42.662;23.260;2023-05-10T04:34:03;4.17;;;3.30;;
20008;SDS011;10165;42.662;23.260;2023-05-10T04:36:30;5.53;;;3.90;;
20008;SDS011;10165;42.662;23.260;2023-05-10T04:38:58;4.10;;;3.63;;
20008;SDS011;10165;42.662;23.260;2023-05-10T04:41:25;4.97;;;2.83;;
20008;SDS011;10165;42.662;23.260;2023-05-10T04:43:52;4.83;;;3.63;;
20008;SDS011;10165;42.662;23.260;2023-05-10T04:46:18;4.57;;;3.37;;
20008;SDS011;10165;42.662;23.260;2023-05-10T04:48:45;4.10;;;3.03;;
20008;SDS011;10165;42.662;23.260;2023-05-10T04:51:12;8.70;;;3.47;;
20008;SDS011;10165;42.662;23.260;2023-05-10T04:53:39;4.37;;;3.40;;
20008;SDS011;10165;42.662;23.260;2023-05-10T04:56:07;4.30;;;3.30;;
20008;SDS011;10165;42.662;23.260;2023-05-10T04:58:33;5.00;;;3.87;;
20008;SDS011;10165;42.662;23.260;2023-05-10T05:01:06;3.70;;;3.30;;
20008;SDS011;10165;42.662;23.260;2023-05-10T05:03:36;3.90;;;2.90;;
20008;SDS011;10165;42.662;23.260;2023-05-10T05:06:03;4.63;;;3.40;;
20008;SDS011;10165;42.662;23.260;2023-05-10T05:08:30;4.17;;;3.37;;
20008;SDS011;10165;42.662;23.260;2023-05-10T05:10:57;7.23;;;3.70;;
20008;SDS011;10165;42.662;23.260;2023-05-10T05:13:24;6.63;;;3.10;;
20008;SDS011;10165;42.662;23.260;2023-05-10T05:15:50;6.53;;;4.40;;
20008;SDS011;10165;42.662;23.260;2023-05-10T05:18:17;4.73;;;3.50;;
20008;SDS011;10165;42.662;23.260;2023-05-10T05:20:44;5.13;;;3.60;;
20008;SDS011;10165;42.662;23.260;2023-05-10T05:23:10;3.47;;;3.00;;
20008;SDS011;10165;42.662;23.260;2023-05-10T05:25:37;6.37;;;3.60;;
20008;SDS011;10165;42.662;23.260;2023-05-10T05:28:04;6.17;;;4.33;;
20008;SDS011;10165;42.662;23.260;2023-05-10T05:30:30;4.97;;;3.20;;
20008;SDS011;10165;42.662;23.260;2023-05-10T05:32:57;4.60;;;3.93;;
20008;SDS011;10165;42.662;23.260;2023-05-10T05:35:24;4.77;;;4.27;;
20008;SDS011;10165;42.662;23.260;2023-05-10T05:37:51;6.40;;;3.87;;
20008;SDS011;10165;42.662;23.260;2023-05-10T05:40:17;9.10;;;4.13;;
20008;SDS011;10165;42.662;23.260;2023-05-10T05:42:44;4.00;;;3.60;;
20008;SDS011;10165;42.662;23.260;2023-05-10T05:45:11;5.13;;;4.13;;
20008;SDS011;10165;42.662;23.260;2023-05-10T05:47:39;5.33;;;3.40;;
20008;SDS011;10165;42.662;23.260;2023-05-10T05:50:06;9.83;;;4.60;;
20008;SDS011;10165;42.662;23.260;2023-05-10T05:52:33;5.50;;;4.53;;
20008;SDS011;10165;42.662;23.260;2023-05-10T05:55:00;5.43;;;4.33;;
20008;SDS011;10165;42.662;23.260;2023-05-10T05:57:27;7.27;;;4.60;;
20008;SDS011;10165;42.662;23.260;2023-05-10T05:59:54;7.03;;;4.90;;
20008;SDS011;10165;42.662;23.260;2023-05-10T06:02:20;6.57;;;5.13;;
20008;SDS011;10165;42.662;23.260;2023-05-10T06:04:47;5.73;;;4.93;;
20008;SDS011;10165;42.662;23.260;2023-05-10T06:07:14;7.53;;;4.87;;
20008;SDS011;10165;42.662;23.260;2023-05-10T06:09:40;5.80;;;4.10;;
20008;SDS011;10165;42.662;23.260;2023-05-10T06:12:07;5.83;;;4.47;;
20008;SDS011;10165;42.662;23.260;2023-05-10T06:14:34;6.97;;;4.37;;
20008;SDS011;10165;42.662;23.260;2023-05-10T06:17:00;8.37;;;4.80;;
20008;SDS011;10165;42.662;23.260;2023-05-10T06:19:30;7.40;;;5.77;;
20008;SDS011;10165;42.662;23.260;2023-05-10T06:21:57;6.90;;;5.00;;
20008;SDS011;10165;42.662;23.260;2023-05-10T06:24:23;8.57;;;5.47;;
20008;SDS011;10165;42.662;23.260;2023-05-10T06:26:50;8.33;;;5.60;;
20008;SDS011;10165;42.662;23.260;2023-05-10T06:29:17;6.97;;;4.87;;
20008;SDS011;10165;42.662;23.260;2023-05-10T06:31:43;10.37;;;5.77;;
20008;SDS011;10165;42.662;23.260;2023-05-10T06:34:10;8.53;;;4.67;;
20008;SDS011;10165;42.662;23.260;2023-05-10T06:36:37;10.13;;;4.80;;
20008;SDS011;10165;42.662;23.260;2023-05-10T06:39:04;7.87;;;5.20;;
20008;SDS011;10165;42.662;23.260;2023-05-10T06:41:31;10.43;;;5.87;;
20008;SDS011;10165;42.662;23.260;2023-05-10T06:43:58;9.50;;;6.00;;
20008;SDS011;10165;42.662;23.260;2023-05-10T06:46:25;15.10;;;5.37;;
20008;SDS011;10165;42.662;23.260;2023-05-10T06:48:52;9.83;;;5.40;;
20008;SDS011;10165;42.662;23.260;2023-05-10T06:51:18;9.67;;;5.00;;
20008;SDS011;10165;42.662;23.260;2023-05-10T06:53:47;7.13;;;5.00;;
20008;SDS011;10165;42.662;23.260;2023-05-10T06:56:13;9.77;;;5.27;;
20008;SDS011;10165;42.662;23.260;2023-05-10T06:58:40;7.07;;;5.10;;
20008;SDS011;10165;42.662;23.260;2023-05-10T07:01:07;11.70;;;5.70;;
20008;SDS011;10165;42.662;23.260;2023-05-10T07:03:34;6.70;;;4.60;;
20008;SDS011;10165;42.662;23.260;2023-05-10T07:06:01;11.23;;;5.47;;
20008;SDS011;10165;42.662;23.260;2023-05-10T07:08:43;11.30;;;6.23;;
20008;SDS011;10165;42.662;23.260;2023-05-10T07:11:10;20.60;;;9.70;;
20008;SDS011;10165;42.662;23.260;2023-05-10T07:13:37;9.93;;;6.73;;
20008;SDS011;10165;42.662;23.260;2023-05-10T07:16:05;18.63;;;7.97;;
20008;SDS011;10165;42.662;23.260;2023-05-10T07:18:32;12.10;;;6.40;;
20008;SDS011;10165;42.662;23.260;2023-05-10T07:20:59;11.43;;;5.33;;
20008;SDS011;10165;42.662;23.260;2023-05-10T07:23:26;10.03;;;6.57;;
20008;SDS011;10165;42.662;23.260;2023-05-10T07:25:53;9.73;;;4.77;;
20008;SDS011;10165;42.662;23.260;2023-05-10T07:28:20;8.47;;;6.40;;
20008;SDS011;10165;42.662;23.260;2023-05-10T07:30:46;7.93;;;5.70;;
20008;SDS011;10165;42.662;23.260;2023-05-10T07:33:13;9.83;;;5.50;;
20008;SDS011;10165;42.662;23.260;2023-05-10T07:35:40;6.43;;;4.67;;
20008;SDS011;10165;42.662;23.260;2023-05-10T07:38:08;7.77;;;4.70;;
20008;SDS011;10165;42.662;23.260;2023-05-10T07:40:34;7.90;;;4.60;;
20008;SDS011;10165;42.662;23.260;2023-05-10T07:43:01;7.60;;;5.50;;
20008;SDS011;10165;42.662;23.260;2023-05-10T07:45:28;10.30;;;5.80;;
20008;SDS011;10165;42.662;23.260;2023-05-10T07:47:55;7.97;;;5.43;;
20008;SDS011;10165;42.662;23.260;2023-05-10T07:50:22;6.63;;;5.23;;
20008;SDS011;10165;42.662;23.260;2023-05-10T07:52:49;8.47;;;5.27;;
20008;SDS011;10165;42.662;23.260;2023-05-10T07:55:15;14.10;;;5.83;;
20008;SDS011;10165;42.662;23.260;2023-05-10T07:57:44;10.53;;;5.57;;
20008;SDS011;10165;42.662;23.260;2023-05-10T08:00:12;8.00;;;5.47;;
20008;SDS011;10165;42.662;23.260;2023-05-10T08:02:39;7.97;;;5.90;;
20008;SDS011;10165;42.662;23.260;2023-05-10T08:05:07;8.50;;;6.77;;
20008;SDS011;10165;42.662;23.260;2023-05-10T08:07:34;8.80;;;5.80;;
20008;SDS011;10165;42.662;23.260;2023-05-10T08:10:01;11.90;;;6.17;;
20008;SDS011;10165;42.662;23.260;2023-05-10T08:12:28;9.50;;;6.47;;
20008;SDS011;10165;42.662;23.260;2023-05-10T08:14:55;6.20;;;4.63;;
20008;SDS011;10165;42.662;23.260;2023-05-10T08:17:21;6.73;;;4.83;;
20008;SDS011;10165;42.662;23.260;2023-05-10T08:19:50;8.47;;;5.70;;
20008;SDS011;10165;42.662;23.260;2023-05-10T08:22:16;11.13;;;7.17;;
20008;SDS011;10165;42.662;23.260;2023-05-10T08:24:43;10.27;;;6.47;;
20008;SDS011;10165;42.662;23.260;2023-05-10T08:27:09;10.23;;;6.23;;
20008;SDS011;10165;42.662;23.260;2023-05-10T08:29:37;14.87;;;6.87;;
20008;SDS011;10165;42.662;23.260;2023-05-10T08:32:14;12.13;;;6.93;;
20008;SDS011;10165;42.662;23.260;2023-05-10T08:34:41;10.23;;;5.63;;
20008;SDS011;10165;42.662;23.260;2023-05-10T08:37:07;9.73;;;6.40;;
20008;SDS011;10165;42.662;23.260;2023-05-10T08:39:34;6.23;;;5.37;;
20008;SDS011;10165;42.662;23.260;2023-05-10T08:42:03;8.10;;;5.67;;
20008;SDS011;10165;42.662;23.260;2023-05-10T08:44:35;8.73;;;6.13;;
20008;SDS011;10165;42.662;23.260;2023-05-10T08:47:04;7.67;;;5.40;;
20008;SDS011;10165;42.662;23.260;2023-05-10T08:49:33;10.63;;;5.93;;
20008;SDS011;10165;42.662;23.260;2023-05-10T08:52:03;6.93;;;5.23;;
20008;SDS011;10165;42.662;23.260;2023-05-10T08:54:32;6.57;;;5.13;;
20008;SDS011;10165;42.662;23.260;2023-05-10T08:56:59;7.77;;;5.73;;
20008;SDS011;10165;42.662;23.260;2023-05-10T08:59:27;7.27;;;5.63;;
20008;SDS011;10165;42.662;23.260;2023-05-10T09:01:55;8.73;;;5.60;;
20008;SDS011;10165;42.662;23.260;2023-05-10T09:04:23;8.10;;;5.70;;
20008;SDS011;10165;42.662;23.260;2023-05-10T09:06:51;10.03;;;5.43;;
20008;SDS011;10165;42.662;23.260;2023-05-10T09:09:18;8.33;;;6.07;;
20008;SDS011;10165;42.662;23.260;2023-05-10T09:11:46;7.33;;;5.17;;
20008;SDS011;10165;42.662;23.260;2023-05-10T09:14:14;6.40;;;5.63;;
20008;SDS011;10165;42.662;23.260;2023-05-10T09:16:41;9.07;;;5.87;;
20008;SDS011;10165;42.662;23.260;2023-05-10T09:19:08;7.17;;;5.30;;
20008;SDS011;10165;42.662;23.260;2023-05-10T09:21:36;9.03;;;5.40;;
20008;SDS011;10165;42.662;23.260;2023-05-10T09:24:07;10.83;;;6.30;;
20008;SDS011;10165;42.662;23.260;2023-05-10T09:26:35;12.37;;;6.27;;
20008;SDS011;10165;42.662;23.260;2023-05-10T09:29:02;9.33;;;5.87;;
20008;SDS011;10165;42.662;23.260;2023-05-10T09:32:03;9.17;;;6.63;;
20008;SDS011;10165;42.662;23.260;2023-05-10T09:34:32;8.63;;;5.40;;
20008;SDS011;10165;42.662;23.260;2023-05-10T09:37:02;7.27;;;6.17;;
20008;SDS011;10165;42.662;23.260;2023-05-10T09:39:34;8.07;;;6.00;;
20008;SDS011;10165;42.662;23.260;2023-05-10T09:42:03;10.27;;;6.07;;
20008;SDS011;10165;42.662;23.260;2023-05-10T09:44:34;7.53;;;6.10;;
20008;SDS011;10165;42.662;23.260;2023-05-10T09:47:02;6.10;;;5.33;;
20008;SDS011;10165;42.662;23.260;2023-05-10T09:49:29;6.93;;;5.30;;
20008;SDS011;10165;42.662;23.260;2023-05-10T09:51:59;12.43;;;6.23;;
20008;SDS011;10165;42.662;23.260;2023-05-10T09:54:33;9.17;;;6.30;;
20008;SDS011;10165;42.662;23.260;2023-05-10T09:57:00;8.23;;;5.30;;
20008;SDS011;10165;42.662;23.260;2023-05-10T09:59:27;10.83;;;6.20;;
20008;SDS011;10165;42.662;23.260;2023-05-10T10:01:55;12.90;;;6.60;;
20008;SDS011;10165;42.662;23.260;2023-05-10T10:04:24;6.93;;;4.83;;
20008;SDS011;10165;42.662;23.260;2023-05-10T10:07:03;11.97;;;6.67;;
20008;SDS011;10165;42.662;23.260;2023-05-10T10:09:31;7.33;;;5.97;;
20008;SDS011;10165;42.662;23.260;2023-05-10T10:12:02;13.20;;;6.10;;
20008;SDS011;10165;42.662;23.260;2023-05-10T10:14:30;10.07;;;6.40;;
20008;SDS011;10165;42.662;23.260;2023-05-10T10:16:56;10.20;;;6.20;;
20008;SDS011;10165;42.662;23.260;2023-05-10T10:19:29;6.20;;;4.67;;
20008;SDS011;10165;42.662;23.260;2023-05-10T10:21:59;15.33;;;6.30;;
20008;SDS011;10165;42.662;23.260;2023-05-10T10:24:26;9.60;;;6.00;;
20008;SDS011;10165;42.662;23.260;2023-05-10T10:26:54;7.13;;;5.27;;
20008;SDS011;10165;42.662;23.260;2023-05-10T10:35:11;7.93;;;5.63;;
20008;SDS011;10165;42.662;23.260;2023-05-10T10:37:44;8.40;;;5.93;;
20008;SDS011;10165;42.662;23.260;2023-05-10T10:40:31;7.90;;;5.33;;
20008;SDS011;10165;42.662;23.260;2023-05-10T10:48:37;8.53;;;5.83;;
20008;SDS011;10165;42.662;23.260;2023-05-10T10:51:04;10.13;;;5.40;;
20008;SDS011;10165;42.662;23.260;2023-05-10T10:53:31;8.00;;;5.97;;
20008;SDS011;10165;42.662;23.260;2023-05-10T10:56:05;6.40;;;4.73;;
20008;SDS011;10165;42.662;23.260;2023-05-10T10:58:36;6.97;;;5.30;;
20008;SDS011;10165;42.662;23.260;2023-05-10T11:03:38;8.10;;;5.80;;
20008;SDS011;10165;42.662;23.260;2023-05-10T11:06:05;9.73;;;5.37;;
20008;SDS011;10165;42.662;23.260;2023-05-10T11:08:32;6.33;;;4.83;;
20008;SDS011;10165;42.662;23.260;2023-05-10T11:11:04;6.27;;;5.20;;
20008;SDS011;10165;42.662;23.260;2023-05-10T11:13:45;6.40;;;5.20;;
20008;SDS011;10165;42.662;23.260;2023-05-10T11:16:23;6.83;;;5.33;;
20008;SDS011;10165;42.662;23.260;2023-05-10T11:21:25;7.57;;;5.13;;
20008;SDS011;10165;42.662;23.260;2023-05-10T11:23:53;8.63;;;5.07;;
20008;SDS011;10165;42.662;23.260;2023-05-10T11:26:23;6.77;;;4.83;;
20008;SDS011;10165;42.662;23.260;2023-05-10T11:28:53;11.50;;;6.10;;
20008;SDS011;10165;42.662;23.260;2023-05-10T11:31:21;7.03;;;4.83;;
20008;SDS011;10165;42.662;23.260;2023-05-10T11:33:50;10.43;;;5.83;;
20008;SDS011;10165;42.662;23.260;2023-05-10T11:36:23;8.67;;;5.33;;
20008;SDS011;10165;42.662;23.260;2023-05-10T11:38:52;9.40;;;5.57;;
20008;SDS011;10165;42.662;23.260;2023-05-10T11:41:19;7.43;;;5.50;;
20008;SDS011;10165;42.662;23.260;2023-05-10T11:43:50;8.03;;;6.17;;
20008;SDS011;10165;42.662;23.260;2023-05-10T11:46:19;7.20;;;4.57;;
20008;SDS011;10165;42.662;23.260;2023-05-10T11:48:51;7.57;;;5.60;;
20008;SDS011;10165;42.662;23.260;2023-05-10T11:51:21;9.23;;;5.90;;
20008;SDS011;10165;42.662;23.260;2023-05-10T11:53:53;9.83;;;5.47;;
20008;SDS011;10165;42.662;23.260;2023-05-10T11:56:21;9.63;;;6.00;;
20008;SDS011;10165;42.662;23.260;2023-05-10T11:58:53;11.53;;;5.13;;
20008;SDS011;10165;42.662;23.260;2023-05-10T12:01:22;9.50;;;6.00;;
20008;SDS011;10165;42.662;23.260;2023-05-10T12:03:50;8.37;;;6.03;;
20008;SDS011;10165;42.662;23.260;2023-05-10T12:06:21;10.90;;;6.03;;
20008;SDS011;10165;42.662;23.260;2023-05-10T12:08:48;5.97;;;5.37;;
20008;SDS011;10165;42.662;23.260;2023-05-10T12:11:18;8.87;;;5.53;;
20008;SDS011;10165;42.662;23.260;2023-05-10T12:13:47;8.27;;;5.80;;
20008;SDS011;10165;42.662;23.260;2023-05-10T12:18:49;10.50;;;6.57;;
20008;SDS011;10165;42.662;23.260;2023-05-10T12:21:20;8.17;;;6.07;;
20008;SDS011;10165;42.662;23.260;2023-05-10T12:23:51;7.73;;;5.47;;
20008;SDS011;10165;42.662;23.260;2023-05-10T12:26:22;8.97;;;5.80;;
20008;SDS011;10165;42.662;23.260;2023-05-10T12:28:49;7.13;;;5.53;;
20008;SDS011;10165;42.662;23.260;2023-05-10T12:31:16;9.17;;;5.97;;
20008;SDS011;10165;42.662;23.260;2023-05-10T12:33:43;9.90;;;6.40;;
20008;SDS011;10165;42.662;23.260;2023-05-10T12:36:11;7.90;;;5.03;;
20008;SDS011;10165;42.662;23.260;2023-05-10T12:38:40;7.73;;;5.87;;
20008;SDS011;10165;42.662;23.260;2023-05-10T12:41:14;11.70;;;5.77;;
20008;SDS011;10165;42.662;23.260;2023-05-10T12:43:43;8.40;;;5.60;;
20008;SDS011;10165;42.662;23.260;2023-05-10T12:46:12;9.50;;;5.90;;
20008;SDS011;10165;42.662;23.260;2023-05-10T12:48:43;8.93;;;5.70;;
20008;SDS011;10165;42.662;23.260;2023-05-10T12:51:12;9.00;;;5.47;;
20008;SDS011;10165;42.662;23.260;2023-05-10T12:53:42;15.07;;;5.63;;
20008;SDS011;10165;42.662;23.260;2023-05-10T12:56:12;12.43;;;6.50;;
20008;SDS011;10165;42.662;23.260;2023-05-10T12:58:39;11.60;;;6.53;;
20008;SDS011;10165;42.662;23.260;2023-05-10T13:01:05;8.90;;;5.90;;
20008;SDS011;10165;42.662;23.260;2023-05-10T13:03:32;8.77;;;6.10;;
20008;SDS011;10165;42.662;23.260;2023-05-10T13:05:59;8.37;;;6.10;;
20008;SDS011;10165;42.662;23.260;2023-05-10T13:08:26;5.17;;;4.33;;
20008;SDS011;10165;42.662;23.260;2023-05-10T13:10:52;7.23;;;5.57;;
20008;SDS011;10165;42.662;23.260;2023-05-10T13:13:19;8.03;;;5.57;;
20008;SDS011;10165;42.662;23.260;2023-05-10T13:15:46;15.70;;;6.10;;
20008;SDS011;10165;42.662;23.260;2023-05-10T13:18:12;7.47;;;4.67;;
20008;SDS011;10165;42.662;23.260;2023-05-10T13:20:39;8.07;;;5.67;;
20008;SDS011;10165;42.662;23.260;2023-05-10T13:23:06;7.73;;;5.03;;
20008;SDS011;10165;42.662;23.260;2023-05-10T13:25:33;9.57;;;5.83;;
20008;SDS011;10165;42.662;23.260;2023-05-10T13:28:00;9.63;;;5.43;;
20008;SDS011;10165;42.662;23.260;2023-05-10T13:30:27;13.10;;;6.03;;
20008;SDS011;10165;42.662;23.260;2023-05-10T13:32:55;13.77;;;6.27;;
20008;SDS011;10165;42.662;23.260;2023-05-10T13:35:22;12.13;;;5.40;;
20008;SDS011;10165;42.662;23.260;2023-05-10T13:37:49;8.27;;;5.77;;
20008;SDS011;10165;42.662;23.260;2023-05-10T13:40:16;7.77;;;5.53;;
20008;SDS011;10165;42.662;23.260;2023-05-10T13:42:43;8.77;;;5.83;;
20008;SDS011;10165;42.662;23.260;2023-05-10T13:45:10;5.00;;;4.50;;
20008;SDS011;10165;42.662;23.260;2023-05-10T13:47:38;5.50;;;4.63;;
20008;SDS011;10165;42.662;23.260;2023-05-10T13:50:05;12.37;;;5.73;;
20008;SDS011;10165;42.662;23.260;2023-05-10T13:52:33;9.43;;;4.60;;
20008;SDS011;10165;42.662;23.260;2023-05-10T13:54:59;7.20;;;5.23;;
20008;SDS011;10165;42.662;23.260;2023-05-10T13:57:28;6.43;;;4.63;;
20008;SDS011;10165;42.662;23.260;2023-05-10T13:59:56;10.50;;;5.43;;
20008;SDS011;10165;42.662;23.260;2023-05-10T14:02:23;5.60;;;4.50;;
20008;SDS011;10165;42.662;23.260;2023-05-10T14:04:51;12.60;;;5.27;;
20008;SDS011;10165;42.662;23.260;2023-05-10T14:07:17;7.60;;;5.50;;
20008;SDS011;10165;42.662;23.260;2023-05-10T14:09:44;7.33;;;5.13;;
20008;SDS011;10165;42.662;23.260;2023-05-10T14:12:11;7.23;;;4.60;;
20008;SDS011;10165;42.662;23.260;2023-05-10T14:14:38;8.70;;;5.20;;
20008;SDS011;10165;42.662;23.260;2023-05-10T14:17:05;11.70;;;6.87;;
20008;SDS011;10165;42.662;23.260;2023-05-10T14:19:31;11.77;;;8.17;;
20008;SDS011;10165;42.662;23.260;2023-05-10T14:22:00;9.17;;;6.40;;
20008;SDS011;10165;42.662;23.260;2023-05-10T14:24:27;9.87;;;6.33;;
20008;SDS011;10165;42.662;23.260;2023-05-10T14:26:54;9.60;;;5.40;;
20008;SDS011;10165;42.662;23.260;2023-05-10T14:29:21;12.47;;;5.43;;
20008;SDS011;10165;42.662;23.260;2023-05-10T14:31:48;8.07;;;5.20;;
20008;SDS011;10165;42.662;23.260;2023-05-10T14:34:15;6.67;;;5.00;;
20008;SDS011;10165;42.662;23.260;2023-05-10T14:36:41;10.90;;;5.60;;
20008;SDS011;10165;42.662;23.260;2023-05-10T14:39:08;6.23;;;5.00;;
20008;SDS011;10165;42.662;23.260;2023-05-10T14:41:36;9.57;;;5.27;;
20008;SDS011;10165;42.662;23.260;2023-05-10T14:44:03;12.37;;;7.33;;
20008;SDS011;10165;42.662;23.260;2023-05-10T14:46:29;13.33;;;9.30;;
20008;SDS011;10165;42.662;23.260;2023-05-10T14:48:56;9.47;;;5.53;;
20008;SDS011;10165;42.662;23.260;2023-05-10T14:51:23;9.13;;;5.90;;
20008;SDS011;10165;42.662;23.260;2023-05-10T14:53:49;8.30;;;6.03;;
20008;SDS011;10165;42.662;23.260;2023-05-10T14:56:16;28.30;;;8.33;;
20008;SDS011;10165;42.662;23.260;2023-05-10T14:58:43;12.70;;;6.80;;
20008;SDS011;10165;42.662;23.260;2023-05-10T15:01:10;19.83;;;9.20;;
20008;SDS011;10165;42.662;23.260;2023-05-10T15:03:37;12.53;;;7.27;;
20008;SDS011;10165;42.662;23.260;2023-05-10T15:06:05;16.10;;;9.13;;
20008;SDS011;10165;42.662;23.260;2023-05-10T15:08:31;13.23;;;6.30;;
20008;SDS011;10165;42.662;23.260;2023-05-10T15:10:58;22.67;;;9.00;;
20008;SDS011;10165;42.662;23.260;2023-05-10T15:13:25;11.70;;;6.87;;
20008;SDS011;10165;42.662;23.260;2023-05-10T15:15:51;11.30;;;7.50;;
20008;SDS011;10165;42.662;23.260;2023-05-10T15:18:18;10.67;;;6.33;;